Time;durP1;ratioP1;P1;durP2;ratioP2;P2;SDS_P1;SDS_P2;PMS_P1;PMS_P2;Temp;Humidity;BMP_temperature;BMP_pressure;BME280_temperature;BME280_humidity;BME280_pressure;Samples;Min_cycle;Max_cycle;Signal;HPM_P1;HPM_P2
2024/01/02 00:00:04;;;;;;;;;;;7.20;87.20;;;;;;5090825;27;19924;-62
2024/01/02 00:02:40;;;;;;;;;;;7.20;87.30;;;;;;5090523;27;20295;-63
2024/01/02 00:05:13;;;;;;;;;;;7.10;87.40;;;;;;5089043;28;19924;-63
2024/01/02 00:07:46;;;;;;;;;;;7.20;87.30;;;;;;5088116;28;19938;-64
2024/01/02 00:10:20;;;;;;;;;;;7.20;87.30;;;;;;5088273;28;19927;-63
2024/01/02 00:12:55;;;;;;;;;;;7.20;87.50;;;;;;5087291;28;19924;-63
2024/01/02 00:15:30;;;;;;;;;;;7.20;87.50;;;;;;5100859;28;20374;-63
2024/01/02 00:18:04;;;;;;;;;;;7.20;87.50;;;;;;5107104;28;19928;-63
2024/01/02 00:20:37;;;;;;;;;;;7.20;87.60;;;;;;5106221;28;19934;-63
2024/01/02 00:23:10;;;;;;;;;;;7.20;87.60;;;;;;5108793;27;19928;-63
2024/01/02 00:25:37;;;;;;;;;;;7.20;87.60;;;;;;5105215;28;19943;-63
2024/01/02 00:28:10;;;;;;;;;;;7.20;87.70;;;;;;5106062;28;19928;-62
2024/01/02 00:30:45;;;;;;;;;;;7.20;87.90;;;;;;5090375;28;19934;-63
2024/01/02 00:33:18;;;;;;;;;;;7.20;87.90;;;;;;5106964;28;19930;-63
2024/01/02 00:35:51;;;;;;;;;;;7.10;87.80;;;;;;5108606;28;19923;-62
2024/01/02 00:38:27;;;;;;;;;;;7.20;87.90;;;;;;5106293;28;20484;-63
2024/01/02 00:41:00;;;;;;;;;;;7.20;88.00;;;;;;5108621;28;20386;-63
2024/01/02 00:43:33;;;;;;;;;;;7.20;87.90;;;;;;5099208;28;19947;-63
2024/01/02 00:46:08;;;;;;;;;;;7.20;87.90;;;;;;5107762;28;19931;-62
2024/01/02 00:48:41;;;;;;;;;;;7.20;88.10;;;;;;5099149;28;20294;-63
2024/01/02 00:51:14;;;;;;;;;;;7.20;87.90;;;;;;5081322;28;21270;-63
2024/01/02 00:53:47;;;;;;;;;;;7.20;88.00;;;;;;5097122;28;19934;-62
2024/01/02 00:56:20;;;;;;;;;;;7.20;88.10;;;;;;5089136;28;19957;-62
2024/01/02 00:59:25;;;;;;;;;;;7.20;88.10;;;;;;5069838;28;19935;-63
2024/01/02 01:01:59;;;;;;;;;;;7.20;88.20;;;;;;5109284;28;20027;-63
2024/01/02 01:04:32;;;;;;;;;;;7.20;88.30;;;;;;5107922;28;20404;-62
2024/01/02 01:07:12;;;;;;;;;;;7.20;88.30;;;;;;5106537;28;20388;-62
2024/01/02 01:09:46;;;;;;;;;;;7.20;88.30;;;;;;5108147;28;19924;-62
2024/01/02 01:12:18;;;;;;;;;;;7.20;88.30;;;;;;5107114;28;19977;-63
2024/01/02 01:14:51;;;;;;;;;;;7.20;88.30;;;;;;5106653;28;20430;-62
2024/01/02 01:17:26;;;;;;;;;;;7.20;88.40;;;;;;5105628;28;20401;-63
2024/01/02 01:19:59;;;;;;;;;;;7.10;88.40;;;;;;5107219;28;19924;-62
2024/01/02 01:22:32;;;;;;;;;;;7.10;88.40;;;;;;5107918;28;20441;-62
2024/01/02 01:24:59;;;;;;;;;;;7.20;88.30;;;;;;5107301;27;19928;-63
2024/01/02 01:27:32;;;;;;;;;;;7.20;88.50;;;;;;5083463;28;19942;-62
2024/01/02 01:30:06;;;;;;;;;;;7.20;88.50;;;;;;5073961;28;19957;-62
2024/01/02 01:32:41;;;;;;;;;;;7.10;88.60;;;;;;5090818;28;19924;-61
2024/01/02 01:35:14;;;;;;;;;;;7.10;88.60;;;;;;5088161;28;19977;-61
2024/01/02 01:37:47;;;;;;;;;;;7.10;88.50;;;;;;5088734;28;19951;-61
2024/01/02 01:40:20;;;;;;;;;;;7.10;88.60;;;;;;5088026;28;19932;-62
2024/01/02 01:42:53;;;;;;;;;;;7.10;88.60;;;;;;5082168;28;19973;-64
2024/01/02 01:45:26;;;;;;;;;;;7.10;88.60;;;;;;5091752;28;19959;-64
2024/01/02 01:48:06;;;;;;;;;;;7.10;88.50;;;;;;5086518;28;19923;-63
2024/01/02 01:50:39;;;;;;;;;;;7.10;88.70;;;;;;5111793;28;19939;-62
2024/01/02 01:53:13;;;;;;;;;;;7.10;88.70;;;;;;5110915;28;20010;-63
2024/01/02 01:55:46;;;;;;;;;;;7.10;88.70;;;;;;5093147;28;19930;-64
2024/01/02 01:58:13;;;;;;;;;;;7.10;88.70;;;;;;5089910;28;19967;-62
2024/01/02 02:00:46;;;;;;;;;;;7.10;88.70;;;;;;5092664;28;19932;-62
2024/01/02 02:03:21;;;;;;;;;;;7.10;88.60;;;;;;5090717;28;19935;-61
2024/01/02 02:05:54;;;;;;;;;;;7.10;88.70;;;;;;5110921;28;20275;-61
2024/01/02 02:08:28;;;;;;;;;;;7.10;88.70;;;;;;5092030;28;19928;-62
2024/01/02 02:11:03;;;;;;;;;;;7.10;88.70;;;;;;5109824;28;19979;-62
2024/01/02 02:13:36;;;;;;;;;;;7.10;88.80;;;;;;5093027;28;19950;-62
2024/01/02 02:16:09;;;;;;;;;;;7.10;88.60;;;;;;5088590;28;20007;-62
2024/01/02 02:18:44;;;;;;;;;;;7.10;88.70;;;;;;5091031;28;19924;-62
2024/01/02 02:21:17;;;;;;;;;;;7.10;88.70;;;;;;5110173;28;19984;-62
2024/01/02 02:23:52;;;;;;;;;;;7.10;88.60;;;;;;5090943;28;19935;-64
2024/01/02 02:26:25;;;;;;;;;;;7.10;88.80;;;;;;5110249;28;19924;-61
2024/01/02 02:28:59;;;;;;;;;;;7.10;88.60;;;;;;5109515;28;19931;-61
2024/01/02 02:31:31;;;;;;;;;;;7.10;88.80;;;;;;5111309;28;20014;-63
2024/01/02 02:34:04;;;;;;;;;;;7.10;88.70;;;;;;5108786;28;20954;-65
2024/01/02 02:36:37;;;;;;;;;;;7.10;88.80;;;;;;5111741;27;20012;-62
2024/01/02 02:39:12;;;;;;;;;;;7.10;88.90;;;;;;5110795;28;19955;-62
2024/01/02 02:41:45;;;;;;;;;;;7.10;88.90;;;;;;5092904;28;20423;-63
2024/01/02 02:44:18;;;;;;;;;;;7.10;88.90;;;;;;5109953;28;20405;-62
2024/01/02 02:46:45;;;;;;;;;;;7.10;88.80;;;;;;5109243;28;19928;-64
2024/01/02 02:49:18;;;;;;;;;;;7.10;88.70;;;;;;5110609;28;19975;-62
2024/01/02 02:51:51;;;;;;;;;;;7.10;88.70;;;;;;5108600;28;20362;-62
2024/01/02 02:54:19;;;;;;;;;;;7.10;88.70;;;;;;5109192;28;19928;-65
2024/01/02 02:56:52;;;;;;;;;;;7.10;88.70;;;;;;5089603;28;20011;-62
2024/01/02 02:59:25;;;;;;;;;;;7.10;88.70;;;;;;5089330;28;19931;-62
2024/01/02 03:01:58;;;;;;;;;;;7.10;88.70;;;;;;5100486;28;19981;-63
2024/01/02 03:04:31;;;;;;;;;;;7.10;88.80;;;;;;5110580;28;19924;-63
2024/01/02 03:07:04;;;;;;;;;;;7.10;88.70;;;;;;5109488;28;20102;-64
2024/01/02 03:09:43;;;;;;;;;;;7.00;88.70;;;;;;5109574;28;19931;-62
2024/01/02 03:12:16;;;;;;;;;;;7.00;88.70;;;;;;5108382;28;20025;-63
2024/01/02 03:14:49;;;;;;;;;;;7.10;88.60;;;;;;5107825;27;19931;-61
2024/01/02 03:17:22;;;;;;;;;;;7.10;88.50;;;;;;5103438;28;19931;-62
2024/01/02 03:19:55;;;;;;;;;;;7.10;88.60;;;;;;5109727;27;20404;-63
2024/01/02 03:22:28;;;;;;;;;;;7.00;88.50;;;;;;5109202;28;20366;-62
2024/01/02 03:25:03;;;;;;;;;;;7.10;88.50;;;;;;5107978;28;19966;-61
2024/01/02 03:27:36;;;;;;;;;;;7.10;88.40;;;;;;5109716;28;19931;-63
2024/01/02 03:30:10;;;;;;;;;;;7.10;88.50;;;;;;5110437;28;20374;-64
2024/01/02 03:32:43;;;;;;;;;;;7.00;88.50;;;;;;5108868;28;20446;-63
2024/01/02 03:35:17;;;;;;;;;;;7.00;88.50;;;;;;5109738;28;20278;-62
2024/01/02 03:37:50;;;;;;;;;;;7.00;88.40;;;;;;5110044;28;19934;-63
2024/01/02 03:40:25;;;;;;;;;;;7.10;88.40;;;;;;5109778;28;20371;-62
2024/01/02 03:42:57;;;;;;;;;;;7.00;88.50;;;;;;5108188;27;19931;-62
2024/01/02 03:45:30;;;;;;;;;;;7.00;88.40;;;;;;5111060;28;20008;-62
2024/01/02 03:48:04;;;;;;;;;;;7.00;88.50;;;;;;5107898;28;19930;-61
2024/01/02 03:50:30;;;;;;;;;;;7.00;88.50;;;;;;5108085;28;19973;-63
2024/01/02 03:53:04;;;;;;;;;;;7.00;88.50;;;;;;5108451;28;19924;-61
2024/01/02 03:55:38;;;;;;;;;;;7.00;88.50;;;;;;5082301;28;20295;-62
2024/01/02 03:58:11;;;;;;;;;;;7.00;88.60;;;;;;5087930;28;19935;-62
2024/01/02 04:00:45;;;;;;;;;;;7.00;88.60;;;;;;5087593;28;20676;-63
2024/01/02 04:03:18;;;;;;;;;;;7.00;88.60;;;;;;5086898;28;20368;-62
2024/01/02 04:05:51;;;;;;;;;;;7.00;88.60;;;;;;5088276;28;19967;-62
2024/01/02 04:08:24;;;;;;;;;;;7.00;88.80;;;;;;5087933;28;19933;-62
2024/01/02 04:10:59;;;;;;;;;;;7.00;88.70;;;;;;5087850;28;19924;-61
2024/01/02 04:13:32;;;;;;;;;;;7.00;88.70;;;;;;5089995;28;19934;-62
2024/01/02 04:16:06;;;;;;;;;;;7.00;88.70;;;;;;5090839;28;19935;-60
2024/01/02 04:18:38;;;;;;;;;;;6.90;88.70;;;;;;5104305;27;20008;-63
2024/01/02 04:21:11;;;;;;;;;;;6.90;88.70;;;;;;5108042;28;20019;-61
2024/01/02 04:23:44;;;;;;;;;;;6.90;88.70;;;;;;5108424;28;19939;-61
2024/01/02 04:26:12;;;;;;;;;;;6.90;88.70;;;;;;5107231;28;19927;-63
2024/01/02 04:28:45;;;;;;;;;;;6.90;88.60;;;;;;5107548;28;19934;-64
2024/01/02 04:31:18;;;;;;;;;;;7.00;88.60;;;;;;5108306;28;19955;-62
2024/01/02 04:33:51;;;;;;;;;;;6.90;88.60;;;;;;5108670;28;19962;-62
2024/01/02 04:36:25;;;;;;;;;;;6.90;88.60;;;;;;5107298;28;19925;-61
2024/01/02 04:38:58;;;;;;;;;;;6.90;88.70;;;;;;5108158;28;19954;-62
2024/01/02 04:41:39;;;;;;;;;;;6.90;88.70;;;;;;5107456;28;19932;-62
2024/01/02 04:44:12;;;;;;;;;;;6.80;88.70;;;;;;5107799;28;20018;-63
2024/01/02 04:46:45;;;;;;;;;;;6.80;88.60;;;;;;5107950;27;19934;-63
2024/01/02 04:49:19;;;;;;;;;;;6.90;88.60;;;;;;5091574;28;20363;-62
2024/01/02 04:51:51;;;;;;;;;;;6.90;88.60;;;;;;5109543;28;19932;-63
2024/01/02 04:54:24;;;;;;;;;;;6.80;88.70;;;;;;5103900;28;20298;-60
2024/01/02 04:56:59;;;;;;;;;;;6.70;88.80;;;;;;5102078;28;19928;-61
2024/01/02 04:59:32;;;;;;;;;;;6.70;88.80;;;;;;5106708;28;20438;-62
2024/01/02 05:02:05;;;;;;;;;;;6.80;88.70;;;;;;5107445;28;20286;-62
2024/01/02 05:04:40;;;;;;;;;;;6.70;88.80;;;;;;5105688;28;19989;-61
2024/01/02 05:07:13;;;;;;;;;;;6.80;88.90;;;;;;5106713;28;20006;-62
2024/01/02 05:09:47;;;;;;;;;;;6.70;88.90;;;;;;5106298;28;19996;-62
2024/01/02 05:12:21;;;;;;;;;;;6.70;88.80;;;;;;5106225;28;20333;-62
2024/01/02 05:14:54;;;;;;;;;;;6.80;88.80;;;;;;5107751;28;19935;-62
2024/01/02 05:17:27;;;;;;;;;;;6.70;88.90;;;;;;5105906;28;20372;-63
2024/01/02 05:20:00;;;;;;;;;;;6.70;88.80;;;;;;5110277;28;20329;-63
2024/01/02 05:22:27;;;;;;;;;;;6.80;88.80;;;;;;5109784;28;19928;-63
2024/01/02 05:25:00;;;;;;;;;;;6.70;88.80;;;;;;5083619;28;20406;-62
2024/01/02 05:27:35;;;;;;;;;;;6.80;88.80;;;;;;5112455;28;19974;-62
2024/01/02 05:30:09;;;;;;;;;;;6.80;88.90;;;;;;5110803;27;19930;-62
2024/01/02 05:32:42;;;;;;;;;;;6.80;88.90;;;;;;5111177;28;20010;-60
2024/01/02 05:35:15;;;;;;;;;;;6.70;89.00;;;;;;5110544;28;20389;-63
2024/01/02 05:37:48;;;;;;;;;;;6.80;89.10;;;;;;5111323;28;19935;-60
2024/01/02 05:40:21;;;;;;;;;;;6.80;89.00;;;;;;5092946;28;19934;-59
2024/01/02 05:42:57;;;;;;;;;;;6.80;89.00;;;;;;5111472;28;19984;-62
2024/01/02 05:45:30;;;;;;;;;;;6.90;89.00;;;;;;5110529;27;19932;-62
2024/01/02 05:48:04;;;;;;;;;;;6.80;89.10;;;;;;5112255;28;19943;-63
2024/01/02 05:50:38;;;;;;;;;;;6.80;89.10;;;;;;5111184;28;19976;-61
2024/01/02 05:53:11;;;;;;;;;;;6.90;89.20;;;;;;5110797;27;20022;-61
2024/01/02 05:55:51;;;;;;;;;;;6.80;89.30;;;;;;5111949;28;19930;-62
2024/01/02 05:58:26;;;;;;;;;;;6.90;89.20;;;;;;5104970;27;20328;-61
2024/01/02 06:01:00;;;;;;;;;;;6.90;89.40;;;;;;5108086;28;19927;-61
2024/01/02 06:03:32;;;;;;;;;;;6.90;89.30;;;;;;5097975;28;19989;-60
2024/01/02 06:06:06;;;;;;;;;;;6.90;89.30;;;;;;5110989;28;20350;-61
2024/01/02 06:08:38;;;;;;;;;;;7.00;89.40;;;;;;5111546;28;20026;-61
2024/01/02 06:11:11;;;;;;;;;;;7.00;89.50;;;;;;5110963;28;19924;-61
2024/01/02 06:13:46;;;;;;;;;;;6.90;89.60;;;;;;5111452;28;19924;-61
2024/01/02 06:16:20;;;;;;;;;;;6.90;89.70;;;;;;5111806;27;19932;-62
2024/01/02 06:18:46;;;;;;;;;;;7.00;89.70;;;;;;5110389;28;20390;-63
2024/01/02 06:21:19;;;;;;;;;;;7.00;89.80;;;;;;5110513;28;19932;-63
2024/01/02 06:23:52;;;;;;;;;;;6.90;89.70;;;;;;5109818;28;19930;-61
2024/01/02 06:26:25;;;;;;;;;;;6.90;90.00;;;;;;5110504;28;20326;-62
2024/01/02 06:29:00;;;;;;;;;;;6.90;90.20;;;;;;5092076;28;19947;-62
2024/01/02 06:31:34;;;;;;;;;;;6.90;90.00;;;;;;5106093;28;20386;-63
2024/01/02 06:34:06;;;;;;;;;;;6.90;90.00;;;;;;5110192;28;20263;-63
2024/01/02 06:36:39;;;;;;;;;;;7.00;89.90;;;;;;5108772;28;19927;-61
2024/01/02 06:39:15;;;;;;;;;;;7.00;90.10;;;;;;5109689;28;19934;-62
2024/01/02 06:41:48;;;;;;;;;;;7.00;90.10;;;;;;5084555;28;19924;-61
2024/01/02 06:44:22;;;;;;;;;;;7.00;90.10;;;;;;5090217;28;19931;-60
2024/01/02 06:46:55;;;;;;;;;;;7.00;90.10;;;;;;5088655;28;20485;-62
2024/01/02 06:49:28;;;;;;;;;;;7.00;90.00;;;;;;5089977;28;20366;-62
2024/01/02 06:52:00;;;;;;;;;;;7.10;90.10;;;;;;5089146;28;20028;-63
2024/01/02 06:54:33;;;;;;;;;;;7.00;90.20;;;;;;5088280;28;20055;-61
2024/01/02 06:57:07;;;;;;;;;;;7.00;90.60;;;;;;5087884;28;19935;-62
2024/01/02 06:59:44;;;;;;;;;;;7.10;90.70;;;;;;5088882;27;19968;-62
2024/01/02 07:02:16;;;;;;;;;;;7.10;90.60;;;;;;5091358;28;20363;-61
2024/01/02 07:04:49;;;;;;;;;;;7.10;90.80;;;;;;5097614;27;19928;-62
2024/01/02 07:07:22;;;;;;;;;;;7.10;90.60;;;;;;5110090;28;19950;-61
2024/01/02 07:09:55;;;;;;;;;;;7.10;90.70;;;;;;5108257;28;19928;-63
2024/01/02 07:12:29;;;;;;;;;;;7.10;90.60;;;;;;5109218;28;19959;-61
2024/01/02 07:15:04;;;;;;;;;;;7.20;90.90;;;;;;5107616;28;19932;-63
2024/01/02 07:17:44;;;;;;;;;;;7.20;91.00;;;;;;5109140;28;19934;-64
2024/01/02 07:20:20;;;;;;;;;;;7.20;91.00;;;;;;5087661;28;19938;-61
2024/01/02 07:22:53;;;;;;;;;;;7.20;91.20;;;;;;5098028;28;19928;-62
2024/01/02 07:25:26;;;;;;;;;;;7.30;91.20;;;;;;5109984;28;19951;-61
2024/01/02 07:27:59;;;;;;;;;;;7.20;91.30;;;;;;5108660;28;19927;-62
2024/01/02 07:30:33;;;;;;;;;;;7.20;91.40;;;;;;5092011;28;19977;-63
2024/01/02 07:33:07;;;;;;;;;;;7.30;91.40;;;;;;5110786;28;19934;-63
2024/01/02 07:35:41;;;;;;;;;;;7.30;91.50;;;;;;5111313;27;19927;-62
2024/01/02 07:38:14;;;;;;;;;;;7.30;91.40;;;;;;5109597;28;19989;-62
2024/01/02 07:40:48;;;;;;;;;;;7.40;91.60;;;;;;5108811;28;19946;-60
2024/01/02 07:43:21;;;;;;;;;;;7.40;91.70;;;;;;5103240;28;19931;-61
2024/01/02 07:45:56;;;;;;;;;;;7.40;91.80;;;;;;5090112;28;20008;-62
2024/01/02 07:48:29;;;;;;;;;;;7.40;91.90;;;;;;5089726;28;19928;-62
2024/01/02 07:51:02;;;;;;;;;;;7.40;92.00;;;;;;5088476;28;19932;-63
2024/01/02 07:53:36;;;;;;;;;;;7.40;91.90;;;;;;5089772;28;19924;-62
2024/01/02 07:56:09;;;;;;;;;;;7.40;92.00;;;;;;5087770;28;19943;-63
2024/01/02 07:58:42;;;;;;;;;;;7.50;92.10;;;;;;5086631;28;19932;-63
2024/01/02 08:01:17;;;;;;;;;;;7.40;92.10;;;;;;5108982;28;19977;-62
2024/01/02 08:03:50;;;;;;;;;;;7.50;92.10;;;;;;5108593;27;19932;-61
2024/01/02 08:06:30;;;;;;;;;;;7.50;92.20;;;;;;5107556;28;19928;-62
2024/01/02 08:09:03;;;;;;;;;;;7.50;92.20;;;;;;5098382;27;19924;-62
2024/01/02 08:11:37;;;;;;;;;;;7.50;92.30;;;;;;5091703;27;19924;-61
2024/01/02 08:14:10;;;;;;;;;;;7.60;92.40;;;;;;5090943;28;19924;-61
2024/01/02 08:16:44;;;;;;;;;;;7.60;92.30;;;;;;5096506;28;20365;-62
2024/01/02 08:19:18;;;;;;;;;;;7.60;92.30;;;;;;5106645;28;20297;-61
2024/01/02 08:21:51;;;;;;;;;;;7.70;92.30;;;;;;5109678;28;19931;-61
2024/01/02 08:24:24;;;;;;;;;;;7.70;92.30;;;;;;5108649;28;19947;-62
2024/01/02 08:26:57;;;;;;;;;;;7.70;92.30;;;;;;5105604;28;19932;-62
2024/01/02 08:29:31;;;;;;;;;;;7.70;92.20;;;;;;5107811;28;19950;-62
2024/01/02 08:32:05;;;;;;;;;;;7.80;92.20;;;;;;5107614;28;19931;-62
2024/01/02 08:34:39;;;;;;;;;;;7.70;92.20;;;;;;5105410;27;20370;-61
2024/01/02 08:37:11;;;;;;;;;;;7.80;92.20;;;;;;5108232;28;19927;-62
2024/01/02 08:39:45;;;;;;;;;;;7.90;92.20;;;;;;5105627;28;19924;-62
2024/01/02 08:42:18;;;;;;;;;;;7.80;92.10;;;;;;5106618;28;19936;-62
2024/01/02 08:44:51;;;;;;;;;;;7.80;92.20;;;;;;5108088;28;19924;-62
2024/01/02 08:47:25;;;;;;;;;;;7.90;92.10;;;;;;5106656;28;20443;-63
2024/01/02 08:49:59;;;;;;;;;;;7.90;92.00;;;;;;5107634;28;20298;-62
2024/01/02 08:52:32;;;;;;;;;;;7.90;92.00;;;;;;5106856;28;19923;-62
2024/01/02 08:55:05;;;;;;;;;;;7.90;92.00;;;;;;5108880;28;19930;-62
2024/01/02 08:57:38;;;;;;;;;;;7.90;91.90;;;;;;5104709;27;19935;-62
2024/01/02 09:00:14;;;;;;;;;;;7.90;92.00;;;;;;5087437;28;19943;-63
2024/01/02 09:02:49;;;;;;;;;;;7.90;91.90;;;;;;5102260;28;19924;-63
2024/01/02 09:05:23;;;;;;;;;;;8.00;91.90;;;;;;5089159;28;19931;-62
2024/01/02 09:07:58;;;;;;;;;;;8.00;91.80;;;;;;5088385;28;19928;-62
2024/01/02 09:10:32;;;;;;;;;;;8.00;91.70;;;;;;5088999;28;19924;-63
2024/01/02 09:13:05;;;;;;;;;;;8.00;91.80;;;;;;5088044;28;19977;-63
2024/01/02 09:15:38;;;;;;;;;;;8.10;91.60;;;;;;5087625;28;20020;-63
2024/01/02 09:18:13;;;;;;;;;;;8.10;91.60;;;;;;5087298;28;20032;-63
2024/01/02 09:20:47;;;;;;;;;;;8.10;91.70;;;;;;5106291;28;20359;-62
2024/01/02 09:23:21;;;;;;;;;;;8.10;91.70;;;;;;5106982;28;19986;-62
2024/01/02 09:25:58;;;;;;;;;;;8.10;91.60;;;;;;5106180;28;20348;-62
2024/01/02 09:28:33;;;;;;;;;;;8.10;91.60;;;;;;5106149;27;20329;-63
2024/01/02 09:31:07;;;;;;;;;;;8.10;91.60;;;;;;5107736;28;20406;-61
2024/01/02 09:33:42;;;;;;;;;;;8.10;91.50;;;;;;5106698;28;19959;-63
2024/01/02 09:36:16;;;;;;;;;;;8.10;91.60;;;;;;5109557;28;20438;-63
2024/01/02 09:38:49;;;;;;;;;;;8.20;91.60;;;;;;5106814;28;19973;-62
2024/01/02 09:41:36;;;;;;;;;;;8.20;91.50;;;;;;5109483;28;19932;-62
2024/01/02 09:44:16;;;;;;;;;;;8.20;91.50;;;;;;5088602;28;19973;-63
2024/01/02 09:46:52;;;;;;;;;;;8.20;91.50;;;;;;5106159;28;20268;-62
2024/01/02 09:49:28;;;;;;;;;;;8.30;91.60;;;;;;5105785;28;19930;-64
2024/01/02 09:52:10;;;;;;;;;;;8.20;91.50;;;;;;5100554;27;19934;-63
2024/01/02 09:54:49;;;;;;;;;;;8.30;91.50;;;;;;5071076;28;19924;-60
2024/01/02 09:57:25;;;;;;;;;;;8.30;91.40;;;;;;5107220;28;20014;-61
2024/01/02 10:00:04;;;;;;;;;;;8.30;91.40;;;;;;5106586;28;20006;-62
2024/01/02 10:03:01;;;;;;;;;;;8.30;91.40;;;;;;5106480;28;19966;-66
2024/01/02 10:05:43;;;;;;;;;;;8.30;91.30;;;;;;5107323;28;20268;-63
2024/01/02 10:08:36;;;;;;;;;;;8.40;91.30;;;;;;5112508;27;20000;-62
2024/01/02 10:11:15;;;;;;;;;;;8.40;91.20;;;;;;5110830;28;20014;-62
2024/01/02 10:13:51;;;;;;;;;;;8.40;91.20;;;;;;5109660;28;20340;-61
2024/01/02 10:16:28;;;;;;;;;;;8.40;91.30;;;;;;5110898;28;19923;-62
2024/01/02 10:19:03;;;;;;;;;;;8.40;91.20;;;;;;5089848;28;20824;-61
2024/01/02 10:21:42;;;;;;;;;;;8.40;91.20;;;;;;5090673;28;20383;-62
2024/01/02 10:24:20;;;;;;;;;;;8.40;91.20;;;;;;5091041;28;19925;-61
2024/01/02 10:27:00;;;;;;;;;;;8.40;91.10;;;;;;5093876;28;19994;-62
2024/01/02 10:29:38;;;;;;;;;;;8.40;91.20;;;;;;5109190;28;19923;-62
2024/01/02 10:32:12;;;;;;;;;;;8.50;91.20;;;;;;5108182;27;19932;-62
2024/01/02 10:34:54;;;;;;;;;;;8.50;91.20;;;;;;5110156;28;20492;-62
2024/01/02 10:37:29;;;;;;;;;;;8.50;91.20;;;;;;5112397;27;20435;-60
2024/01/02 10:40:08;;;;;;;;;;;8.50;91.20;;;;;;5109569;28;19923;-61
2024/01/02 10:42:46;;;;;;;;;;;8.50;91.30;;;;;;5110880;28;19924;-63
2024/01/02 10:45:21;;;;;;;;;;;8.50;91.20;;;;;;5110865;28;20271;-61
2024/01/02 10:48:01;;;;;;;;;;;8.50;91.20;;;;;;5110297;28;20364;-61
2024/01/02 10:50:40;;;;;;;;;;;8.50;91.20;;;;;;5109556;27;19927;-61
2024/01/02 10:53:21;;;;;;;;;;;8.50;91.10;;;;;;5110874;28;20360;-62
2024/01/02 10:56:03;;;;;;;;;;;8.60;91.00;;;;;;5108681;27;19928;-61
2024/01/02 10:58:41;;;;;;;;;;;8.60;91.00;;;;;;5107930;28;19935;-61
2024/01/02 11:01:16;;;;;;;;;;;8.60;90.80;;;;;;5110933;28;19928;-60
2024/01/02 11:03:55;;;;;;;;;;;8.60;90.90;;;;;;5110155;28;20435;-65
2024/01/02 11:06:34;;;;;;;;;;;8.60;90.80;;;;;;5110564;28;19927;-64
2024/01/02 11:09:12;;;;;;;;;;;8.60;90.70;;;;;;5110301;27;19928;-65
2024/01/02 11:11:50;;;;;;;;;;;8.60;90.70;;;;;;5110123;28;19924;-66
2024/01/02 11:14:25;;;;;;;;;;;8.60;90.70;;;;;;5109412;28;19928;-64
2024/01/02 11:16:58;;;;;;;;;;;8.60;90.70;;;;;;5109171;28;19923;-66
2024/01/02 11:19:40;;;;;;;;;;;8.70;90.70;;;;;;5108634;28;20394;-65
2024/01/02 11:22:16;;;;;;;;;;;8.70;90.60;;;;;;5109434;28;20298;-65
2024/01/02 11:24:56;;;;;;;;;;;8.70;90.60;;;;;;5087977;28;19939;-65
2024/01/02 11:27:31;;;;;;;;;;;8.70;90.60;;;;;;5089534;28;19931;-65
2024/01/02 11:29:57;;;;;;;;;;;8.70;90.60;;;;;;5089472;28;19924;-64
2024/01/02 11:32:37;;;;;;;;;;;8.70;90.50;;;;;;5089610;28;19929;-66
2024/01/02 11:35:11;;;;;;;;;;;8.80;90.50;;;;;;5088455;28;19973;-65
2024/01/02 11:37:48;;;;;;;;;;;8.80;90.50;;;;;;5088317;28;19932;-65
2024/01/02 11:40:26;;;;;;;;;;;8.70;90.60;;;;;;5090241;28;20282;-66
2024/01/02 11:43:17;;;;;;;;;;;8.70;90.70;;;;;;5088902;28;20206;-64
2024/01/02 11:45:58;;;;;;;;;;;8.70;90.70;;;;;;5109779;28;20329;-65
2024/01/02 11:48:43;;;;;;;;;;;8.70;90.80;;;;;;5109824;28;19932;-66
2024/01/02 11:51:22;;;;;;;;;;;8.70;90.80;;;;;;5111111;28;19924;-66
2024/01/02 11:54:11;;;;;;;;;;;8.70;90.70;;;;;;5109087;27;19927;-66
2024/01/02 11:56:46;;;;;;;;;;;8.70;90.80;;;;;;5105235;28;19928;-66
2024/01/02 11:59:22;;;;;;;;;;;8.70;90.80;;;;;;5105510;28;19940;-65
2024/01/02 12:02:02;;;;;;;;;;;8.80;90.80;;;;;;5110681;28;19924;-65
2024/01/02 12:04:42;;;;;;;;;;;8.80;90.80;;;;;;5107890;28;19928;-65
2024/01/02 12:07:18;;;;;;;;;;;8.80;90.90;;;;;;5097100;27;19944;-64
2024/01/02 12:09:52;;;;;;;;;;;8.80;90.90;;;;;;5101994;28;19928;-65
2024/01/02 12:12:37;;;;;;;;;;;8.70;90.90;;;;;;5098969;28;20401;-64
2024/01/02 12:15:14;;;;;;;;;;;8.80;90.90;;;;;;5108769;28;20000;-59
2024/01/02 12:17:51;;;;;;;;;;;8.80;90.90;;;;;;5108655;28;19934;-59
2024/01/02 12:20:25;;;;;;;;;;;8.80;91.00;;;;;;5108430;28;19972;-59
2024/01/02 12:22:59;;;;;;;;;;;8.80;91.00;;;;;;5109875;28;19932;-58
2024/01/02 12:25:33;;;;;;;;;;;8.70;91.10;;;;;;5109406;28;19932;-58
2024/01/02 12:28:07;;;;;;;;;;;8.80;91.10;;;;;;5107409;28;19928;-59
2024/01/02 12:30:43;;;;;;;;;;;8.80;91.20;;;;;;5108324;27;19930;-58
2024/01/02 12:33:20;;;;;;;;;;;8.80;91.20;;;;;;5106984;28;20009;-58
2024/01/02 12:36:01;;;;;;;;;;;8.80;91.30;;;;;;5105916;27;19923;-59
2024/01/02 12:38:45;;;;;;;;;;;8.80;91.30;;;;;;5088495;28;19936;-59
2024/01/02 12:41:19;;;;;;;;;;;8.80;91.20;;;;;;5107991;28;19935;-58
2024/01/02 12:43:57;;;;;;;;;;;8.80;91.20;;;;;;5108872;28;20010;-60
2024/01/02 12:46:33;;;;;;;;;;;8.70;91.20;;;;;;5109819;28;19928;-59
2024/01/02 12:49:09;;;;;;;;;;;8.80;91.20;;;;;;5088515;28;19928;-58
2024/01/02 12:51:36;;;;;;;;;;;8.70;91.20;;;;;;5087290;28;19932;-60
2024/01/02 12:54:13;;;;;;;;;;;8.80;91.20;;;;;;5088169;28;19924;-59
2024/01/02 12:56:51;;;;;;;;;;;8.80;91.20;;;;;;5086981;27;19960;-58
2024/01/02 12:59:29;;;;;;;;;;;8.70;91.20;;;;;;5086801;28;19930;-58
2024/01/02 13:02:04;;;;;;;;;;;8.80;91.20;;;;;;5089488;28;19924;-59
2024/01/02 13:04:38;;;;;;;;;;;8.80;91.20;;;;;;5086838;28;19931;-58
2024/01/02 13:07:11;;;;;;;;;;;8.80;91.20;;;;;;5087218;28;19924;-58
2024/01/02 13:09:46;;;;;;;;;;;8.80;91.20;;;;;;5086183;28;19932;-58
2024/01/02 13:12:20;;;;;;;;;;;8.80;91.20;;;;;;5088102;28;19934;-58
2024/01/02 13:14:55;;;;;;;;;;;8.80;91.20;;;;;;5095520;27;19932;-58
2024/01/02 13:17:28;;;;;;;;;;;8.80;91.20;;;;;;5098232;28;19955;-58
2024/01/02 13:20:02;;;;;;;;;;;8.80;91.30;;;;;;5112295;28;19923;-58
2024/01/02 13:22:36;;;;;;;;;;;8.80;91.30;;;;;;5097451;28;19924;-58
2024/01/02 13:25:17;;;;;;;;;;;8.80;91.40;;;;;;5097761;28;19924;-68
2024/01/02 13:27:51;;;;;;;;;;;8.80;91.40;;;;;;5105968;28;20414;-64
2024/01/02 13:30:42;;;;;;;;;;;8.80;91.40;;;;;;5112309;28;19932;-64
2024/01/02 13:33:15;;;;;;;;;;;8.70;91.40;;;;;;5114411;28;19973;-66
2024/01/02 13:36:00;;;;;;;;;;;8.80;91.40;;;;;;5115573;28;19928;-67
2024/01/02 13:38:39;;;;;;;;;;;8.80;91.50;;;;;;5114805;28;20395;-66
2024/01/02 13:41:13;;;;;;;;;;;8.80;91.50;;;;;;5117724;28;19908;-65
2024/01/02 13:43:47;;;;;;;;;;;8.80;91.50;;;;;;5118308;27;19932;-64
2024/01/02 13:46:22;;;;;;;;;;;8.80;91.50;;;;;;5108339;27;19931;-67
2024/01/02 13:48:57;;;;;;;;;;;8.80;91.50;;;;;;5095921;28;19928;-65
2024/01/02 13:51:30;;;;;;;;;;;8.80;91.50;;;;;;5108906;28;19927;-65
2024/01/02 13:54:06;;;;;;;;;;;8.70;91.50;;;;;;5111466;28;19928;-66
2024/01/02 13:56:47;;;;;;;;;;;8.80;91.50;;;;;;5111111;28;20006;-65
2024/01/02 13:59:33;;;;;;;;;;;8.80;91.60;;;;;;5111614;28;19953;-63
2024/01/02 14:02:15;;;;;;;;;;;8.70;91.70;;;;;;5112980;28;20374;-66
2024/01/02 14:04:50;;;;;;;;;;;8.70;91.70;;;;;;5110909;28;20431;-65
2024/01/02 14:07:24;;;;;;;;;;;8.80;91.70;;;;;;5111906;27;19924;-64
2024/01/02 14:10:00;;;;;;;;;;;8.80;91.60;;;;;;5111060;28;19981;-64
2024/01/02 14:12:37;;;;;;;;;;;8.80;91.70;;;;;;5111567;28;20014;-65
2024/01/02 14:15:16;;;;;;;;;;;8.70;91.60;;;;;;5111116;28;19928;-65
2024/01/02 14:17:54;;;;;;;;;;;8.80;91.70;;;;;;5091025;28;19962;-64
2024/01/02 14:20:30;;;;;;;;;;;8.80;91.60;;;;;;5090159;28;19928;-65
2024/01/02 14:23:01;;;;;;;;;;;8.70;91.70;;;;;;5091501;28;19931;-65
2024/01/02 17:06:57;;;;;;;;;;;9.00;92.30;;;;;;5100976;28;19934;-62
2024/01/02 17:09:36;;;;;;;;;;;8.90;92.40;;;;;;5105136;28;19928;-62
2024/01/02 17:12:10;;;;;;;;;;;9.00;92.40;;;;;;5108816;28;20026;-62
2024/01/02 17:14:45;;;;;;;;;;;8.90;92.40;;;;;;5106803;28;19989;-61
2024/01/02 17:17:19;;;;;;;;;;;8.90;92.40;;;;;;5106867;28;19942;-63
2024/01/02 17:19:52;;;;;;;;;;;8.90;92.30;;;;;;5106735;28;19954;-62
2024/01/02 17:22:28;;;;;;;;;;;9.00;92.30;;;;;;5105339;28;19961;-63
2024/01/02 17:25:01;;;;;;;;;;;9.00;92.40;;;;;;5105268;28;19927;-63
2024/01/02 17:27:34;;;;;;;;;;;9.00;92.30;;;;;;5107767;28;19923;-63
2024/01/02 17:30:08;;;;;;;;;;;9.00;92.30;;;;;;5106613;28;19928;-62
2024/01/02 17:32:38;;;;;;;;;;;9.00;92.40;;;;;;5106534;28;19928;-62
2024/01/02 17:35:12;;;;;;;;;;;9.00;92.40;;;;;;5101400;28;20401;-62
2024/01/02 17:37:47;;;;;;;;;;;9.00;92.30;;;;;;5106377;28;20715;-62
2024/01/02 17:40:20;;;;;;;;;;;9.00;92.30;;;;;;5109177;28;19923;-62
2024/01/02 17:42:55;;;;;;;;;;;9.00;92.30;;;;;;5104551;28;19928;-61
2024/01/02 17:45:29;;;;;;;;;;;9.00;92.40;;;;;;5086233;28;19928;-62
2024/01/02 17:48:04;;;;;;;;;;;9.00;92.40;;;;;;5087417;28;19936;-62
2024/01/02 17:50:39;;;;;;;;;;;9.10;92.30;;;;;;5086824;28;20014;-62
2024/01/02 17:53:13;;;;;;;;;;;9.10;92.30;;;;;;5085371;28;19924;-61
2024/01/02 17:55:48;;;;;;;;;;;9.10;92.40;;;;;;5085921;28;19954;-61